Time;durP1;ratioP1;P1;durP2;ratioP2;P2;SDS_P1;SDS_P2;PMS_P1;PMS_P2;Temp;Humidity;BMP_temperature;BMP_pressure;BME280_temperature;BME280_humidity;BME280_pressure;Samples;Min_cycle;Max_cycle;Signal;HPM_P1;HPM_P2
2023/07/18 00:08:57;;;;;;;21.20;16.80;;;;;;;19.48;83.45;98649.21;435235;1256;107413;-42
2023/07/18 00:19:04;;;;;;;21.80;16.80;;;;;;;19.50;83.40;98648.33;434779;1254;386784;-43
2023/07/18 00:29:11;;;;;;;19.10;16.80;;;;;;;19.46;83.52;98641.95;435315;1253;110703;-42
2023/07/18 00:39:18;;;;;;;20.40;18.10;;;;;;;19.48;83.71;98641.64;435180;1257;107554;-42
2023/07/18 00:49:26;;;;;;;21.60;18.40;;;;;;;19.51;83.47;98657.55;435283;1254;99333;-42
2023/07/18 00:59:33;;;;;;;22.80;17.60;;;;;;;19.39;83.63;98675.04;435090;1258;108869;-41
2023/07/18 01:09:40;;;;;;;22.20;18.10;;;;;;;19.41;84.36;98692.02;435281;1256;98236;-41
2023/07/18 01:19:48;;;;;;;16.60;8.30;;;;;;;19.41;85.27;98734.94;435860;1255;111841;-43
2023/07/18 01:29:55;;;;;;;12.40;6.70;;;;;;;19.13;84.87;98758.73;435248;1256;107279;-43
2023/07/18 01:40:05;;;;;;;16.50;5.80;;;;;;;18.66;82.95;98781.92;435259;1256;98036;-43
2023/07/18 01:50:12;;;;;;;9.50;4.30;;;;;;;18.19;81.23;98792.36;435364;1253;105660;-43
2023/07/18 02:00:20;;;;;;;8.50;4.40;;;;;;;17.81;79.73;98810.48;435172;1254;99266;-44
2023/07/18 02:10:28;;;;;;;6.90;4.60;;;;;;;17.50;78.72;98834.48;435435;1254;113280;-43
2023/07/18 02:20:35;;;;;;;9.70;4.10;;;;;;;17.37;78.02;98845.52;435096;1256;108665;-44
2023/07/18 02:30:43;;;;;;;13.60;4.00;;;;;;;17.30;77.46;98844.61;435238;1256;99221;-43
2023/07/18 02:40:51;;;;;;;8.60;4.80;;;;;;;17.14;77.09;98841.66;435236;1256;110053;-42
2023/07/18 02:50:58;;;;;;;8.30;4.40;;;;;;;17.06;76.75;98844.45;435347;1256;98965;-43
2023/07/18 03:11:11;;;;;;;10.00;4.10;;;;;;;16.70;76.17;98862.10;435138;1254;109188;-42
2023/07/18 03:31:24;;;;;;;13.40;4.80;;;;;;;16.33;77.27;98883.68;435246;1257;108315;-43
2023/07/18 03:41:31;;;;;;;8.70;3.90;;;;;;;16.54;77.39;98890.87;435051;1254;99938;-42
2023/07/18 03:51:39;;;;;;;8.30;4.60;;;;;;;16.67;77.28;98907.43;435261;1256;111121;-43
2023/07/18 04:01:44;;;;;;;7.50;3.60;;;;;;;16.90;77.03;98917.08;435243;1256;107002;-45
2023/07/18 04:11:51;;;;;;;6.60;3.70;;;;;;;17.75;76.85;98937.16;435159;1254;99947;-44
2023/07/18 04:21:58;;;;;;;8.10;3.10;;;;;;;20.01;75.56;98949.69;435129;1256;107971;-43
2023/07/18 04:32:06;;;;;;;8.80;3.50;;;;;;;21.99;73.52;98958.39;435356;1254;97993;-43
2023/07/18 04:42:12;;;;;;;3.20;2.80;;;;;;;23.38;71.27;98969.95;435226;1256;109558;-46
2023/07/18 04:52:19;;;;;;;4.00;2.90;;;;;;;24.41;69.19;98977.29;435199;1256;107748;-42
2023/07/18 05:02:26;;;;;;;8.50;2.60;;;;;;;24.84;66.42;98989.83;435189;1256;99227;-42
2023/07/18 05:22:40;;;;;;;16.70;3.40;;;;;;;24.54;61.40;99004.73;435162;1257;98836;-41
2023/07/18 05:32:52;;;;;;;4.80;3.00;;;;;;;24.03;58.23;99013.06;435292;1254;111338;-43
2023/07/18 05:43:00;;;;;;;4.30;2.20;;;;;;;23.85;57.48;99025.75;435607;1254;107858;-41
2023/07/18 05:53:05;;;;;;;;;;;;;;;23.95;55.48;99027.56;435302;1254;99214;-41
2023/07/18 06:03:13;;;;;;;4.50;2.20;;;;;;;24.09;54.72;99037.67;435152;1257;107690;-42
2023/07/18 06:13:21;;;;;;;3.40;1.60;;;;;;;23.98;53.31;99052.25;435226;1257;99260;-43
2023/07/18 06:23:27;;;;;;;4.90;2.00;;;;;;;24.04;51.53;99056.33;435185;1256;111508;-42
2023/07/18 06:33:34;;;;;;;3.60;1.90;;;;;;;23.91;51.68;99059.05;435164;1254;109384;-41
2023/07/18 06:43:40;;;;;;;3.30;1.70;;;;;;;24.06;51.24;99065.34;435237;1254;98846;-42
2023/07/18 06:53:46;;;;;;;2.90;1.90;;;;;;;24.45;51.23;99057.78;435073;1256;108286;-42
2023/07/18 07:03:51;;;;;;;2.70;2.20;;;;;;;25.15;50.81;99057.27;435340;1256;99211;-41
2023/07/18 07:13:58;;;;;;;3.30;2.20;;;;;;;24.91;48.90;99060.08;435277;1256;111739;-43
2023/07/18 07:24:06;;;;;;;4.90;2.00;;;;;;;24.50;48.01;99065.61;435308;1256;109265;-40
2023/07/18 07:34:13;;;;;;;7.80;1.90;;;;;;;24.67;48.18;99069.05;435316;1256;99877;-43
2023/07/18 07:44:19;;;;;;;;;;;;;;;25.20;48.24;99064.65;435248;1256;109551;-42
2023/07/18 07:54:26;;;;;;;3.20;1.90;;;;;;;25.42;47.74;99066.44;435320;1256;99199;-42
2023/07/18 08:04:33;;;;;;;2.50;1.60;;;;;;;25.57;46.42;99072.71;435292;1254;111411;-43
2023/07/18 08:14:41;;;;;;;4.30;1.60;;;;;;;25.62;45.76;99075.46;435331;1255;107537;-41
2023/07/18 08:34:55;;;;;;;4.30;1.50;;;;;;;25.51;43.50;99068.70;435180;1256;107543;-42
2023/07/18 08:55:11;;;;;;;7.20;2.10;;;;;;;25.44;43.48;99063.14;435161;1254;110653;-43
2023/07/18 09:15:40;;;;;;;3.30;1.70;;;;;;;25.86;42.22;99068.54;435254;1253;99167;-42
2023/07/18 09:25:47;;;;;;;3.30;1.50;;;;;;;25.92;42.27;99064.30;435284;1252;108295;-42
2023/07/18 09:46:03;;;;;;;1.90;1.40;;;;;;;26.02;41.09;99051.34;435346;1253;110582;-41
2023/07/18 09:56:14;;;;;;;2.00;1.10;;;;;;;25.92;41.22;99040.14;435220;1256;108386;-42
2023/07/18 10:06:24;;;;;;;4.50;2.30;;;;;;;26.20;41.30;99035.66;435264;1257;99352;-44
2023/07/18 10:16:29;;;;;;;4.90;2.30;;;;;;;26.30;40.54;99029.27;435229;1256;108052;-42
2023/07/18 10:26:36;;;;;;;2.80;1.30;;;;;;;25.97;40.83;99012.37;435175;1254;99317;-42
2023/07/18 10:36:57;;;;;;;4.70;1.30;;;;;;;26.10;40.79;99005.83;435440;1254;111909;-41
2023/07/18 10:57:23;;;;;;;1.30;1.00;;;;;;;26.38;39.21;98987.52;435435;1256;99234;-42
2023/07/18 11:27:50;;;;;;;3.30;1.80;;;;;;;26.46;37.73;98953.23;435346;1254;111462;-41
2023/07/18 11:37:58;;;;;;;4.50;1.30;;;;;;;26.24;37.96;98941.22;435272;1255;106778;-41
2023/07/18 11:48:07;;;;;;;3.50;1.30;;;;;;;26.19;37.78;98928.48;435385;1257;99218;-41
2023/07/18 11:58:14;;;;;;;1.60;1.50;;;;;;;26.33;37.74;98919.39;435294;1256;108646;-42
2023/07/18 12:08:21;;;;;;;2.90;1.20;;;;;;;26.45;37.47;98921.66;435169;1254;99337;-42
2023/07/18 12:18:32;;;;;;;6.00;1.50;;;;;;;26.44;36.37;98913.16;434923;1252;486321;-44
2023/07/18 12:28:39;;;;;;;5.40;1.20;;;;;;;26.20;36.85;98904.05;435143;1253;109399;-41
2023/07/18 12:38:46;;;;;;;1.50;1.10;;;;;;;26.66;36.75;98904.66;435379;1256;99300;-42
2023/07/18 12:48:53;;;;;;;3.10;1.30;;;;;;;26.44;35.63;98893.88;435090;1254;107587;-41
2023/07/18 12:59:10;;;;;;;1.90;1.50;;;;;;;26.48;36.48;98882.18;435231;1256;99246;-41
2023/07/18 13:19:18;;;;;;;2.20;1.50;;;;;;;26.64;36.55;98873.89;435263;1252;107368;-41
2023/07/18 13:29:25;;;;;;;2.60;1.40;;;;;;;26.45;36.32;98850.30;435215;1256;98832;-41
2023/07/18 13:39:30;;;;;;;1.50;1.30;;;;;;;26.34;36.39;98838.50;435253;1256;108572;-41
2023/07/18 13:49:39;;;;;;;1.40;1.20;;;;;;;26.33;36.90;98814.73;435276;1257;99212;-42
2023/07/18 14:09:55;;;;;;;2.90;1.80;;;;;;;26.38;36.48;98790.63;435190;1258;108570;-41
2023/07/18 14:20:03;;;;;;;3.40;1.60;;;;;;;26.14;36.37;98798.04;435323;1257;97972;-41
2023/07/18 14:30:11;;;;;;;2.20;1.70;;;;;;;26.12;36.69;98824.92;435289;1256;108907;-42
2023/07/18 14:40:17;;;;;;;2.50;1.70;;;;;;;26.17;36.62;98804.68;435240;1254;97979;-41
2023/07/18 14:50:25;;;;;;;2.90;1.70;;;;;;;26.03;36.13;98763.93;435334;1257;111128;-40
2023/07/18 15:00:32;;;;;;;1.90;1.50;;;;;;;25.86;35.73;98762.66;435365;1254;109395;-41
2023/07/18 15:10:40;;;;;;;1.60;1.50;;;;;;;25.53;35.36;98770.99;435155;1264;97985;-41
2023/07/18 15:20:47;;;;;;;10.20;2.20;;;;;;;25.10;35.74;98770.47;435183;1253;108819;-41
2023/07/18 15:30:54;;;;;;;2.30;1.80;;;;;;;25.11;36.40;98752.44;435139;1257;99352;-41
2023/07/18 15:41:02;;;;;;;1.80;1.60;;;;;;;25.34;36.45;98748.02;435357;1253;111730;-42
2023/07/18 15:51:09;;;;;;;4.50;1.80;;;;;;;25.30;36.60;98738.45;435225;1258;108047;-41
2023/07/18 16:01:16;;;;;;;4.00;1.40;;;;;;;25.38;36.67;98712.99;435377;1254;99235;-41
2023/07/18 16:21:30;;;;;;;8.00;1.90;;;;;;;25.00;36.84;98694.74;435219;1254;98797;-41
2023/07/18 16:31:37;;;;;;;8.20;2.00;;;;;;;24.81;37.09;98698.11;435278;1252;111858;-42
2023/07/18 16:41:44;;;;;;;2.20;1.70;;;;;;;24.64;37.70;98697.29;435179;1257;109210;-41
2023/07/18 16:51:50;;;;;;;;;;;;;;;24.43;38.13;98677.85;435208;1257;98335;-41
2023/07/18 17:01:56;;;;;;;2.80;2.10;;;;;;;24.29;38.73;98657.90;435424;1257;109339;-42
2023/07/18 17:12:02;;;;;;;4.50;2.10;;;;;;;24.49;39.24;98649.91;435256;1253;98821;-48
2023/07/18 17:32:14;;;;;;;;;;;;;;;23.99;39.78;98632.39;435332;1256;107828;-43
2023/07/18 17:52:27;;;;;;;3.40;1.90;;;;;;;23.68;40.79;98612.20;435319;1254;108158;-43
2023/07/18 18:12:39;;;;;;;7.20;2.20;;;;;;;23.28;42.16;98611.36;435301;1254;111180;-43
2023/07/18 18:22:45;;;;;;;15.00;3.30;;;;;;;22.82;43.00;98610.28;435282;1256;109024;-41
2023/07/18 18:32:51;;;;;;;6.60;3.10;;;;;;;22.22;43.95;98613.44;435233;1254;98373;-43
2023/07/18 18:42:59;;;;;;;3.30;2.60;;;;;;;21.74;45.01;98620.89;435298;1257;108234;-42
2023/07/18 18:53:06;;;;;;;8.00;2.80;;;;;;;21.26;46.25;98619.94;435334;1254;98833;-41
2023/07/18 19:03:13;;;;;;;10.10;3.80;;;;;;;20.81;47.52;98615.93;435277;1254;112183;-43
2023/07/18 19:13:23;;;;;;;8.70;4.20;;;;;;;20.46;48.54;98622.49;435103;1256;107923;-43
2023/07/18 19:23:30;;;;;;;11.30;5.50;;;;;;;20.10;49.48;98631.59;435296;1254;97986;-43
2023/07/18 19:33:37;;;;;;;6.60;3.90;;;;;;;19.75;50.46;98640.42;435256;1256;108505;-42
2023/07/18 19:43:43;;;;;;;12.70;4.50;;;;;;;19.50;51.43;98638.24;435181;1252;99881;-43
2023/07/18 20:03:56;;;;;;;9.20;5.60;;;;;;;19.17;53.03;98625.98;435296;1257;109372;-41
2023/07/18 20:14:06;;;;;;;12.90;5.30;;;;;;;19.00;54.24;98614.21;435426;1252;99323;-43
2023/07/18 20:34:18;;;;;;;13.30;7.20;;;;;;;18.56;55.19;98577.83;435217;1252;99244;-40
2023/07/18 20:54:34;;;;;;;10.90;6.20;;;;;;;17.96;56.94;98561.10;435191;1256;106309;-41
2023/07/18 21:04:42;;;;;;;7.90;6.40;;;;;;;17.84;57.79;98567.55;435286;1253;98396;-40
2023/07/18 21:14:49;;;;;;;13.20;6.60;;;;;;;17.67;58.26;98577.65;435276;1256;108624;-41
2023/07/18 21:24:56;;;;;;;11.90;6.60;;;;;;;17.56;58.77;98576.73;435346;1254;98682;-41
2023/07/18 21:35:03;;;;;;;14.90;6.60;;;;;;;17.35;59.30;98568.89;435171;1257;111056;-41
2023/07/18 21:45:11;;;;;;;20.90;7.40;;;;;;;17.25;60.13;98549.52;435140;1255;109504;-41
2023/07/18 21:55:18;;;;;;;16.00;7.80;;;;;;;17.14;60.95;98527.98;435350;1253;98011;-41
2023/07/18 22:05:25;;;;;;;13.40;7.90;;;;;;;16.84;61.27;98508.52;435331;1257;107928;-41
2023/07/18 22:15:32;;;;;;;11.90;7.40;;;;;;;16.50;61.50;98510.30;435237;1256;98004;-42
2023/07/18 22:25:39;;;;;;;13.10;8.50;;;;;;;16.42;62.52;98505.67;435458;1256;110391;-41
2023/07/18 22:35:46;;;;;;;21.20;8.80;;;;;;;16.57;63.08;98500.45;434954;1254;108294;-41
2023/07/18 22:45:52;;;;;;;21.30;9.70;;;;;;;16.57;63.47;98488.55;435068;1267;99250;-42
2023/07/18 22:55:59;;;;;;;13.10;9.10;;;;;;;16.40;63.57;98490.36;435193;1257;109281;-41
2023/07/18 23:06:07;;;;;;;14.00;8.40;;;;;;;16.32;63.84;98482.53;435315;1255;99246;-42
2023/07/18 23:26:20;;;;;;;19.50;10.30;;;;;;;16.31;65.00;98472.06;435289;1254;107610;-43
2023/07/18 23:36:27;;;;;;;18.70;10.10;;;;;;;16.26;65.08;98457.20;435437;1256;99233;-42
2023/07/18 23:46:34;;;;;;;15.60;9.60;;;;;;;16.13;65.23;98440.00;435278;1254;107687;-43
2023/07/18 23:56:40;;;;;;;18.40;10.20;;;;;;;16.05;65.42;98431.16;435240;1256;99259;-43
